sensor_id;sensor_type;location;lat;lon;timestamp;P1;durP1;ratioP1;P2;durP2;ratioP2
1999;SDS011;1001;48.87406500;9.59633600;2023-04-15T00:01:50;5.50;;;4.03;;
1999;SDS011;1001;48.87406500;9.59633600;2023-04-15T00:04:17;4.30;;;2.73;;
1999;SDS011;1001;48.87406500;9.59633600;2023-04-15T00:06:48;3.17;;;2.80;;
1999;SDS011;1001;48.87406500;9.59633600;2023-04-15T00:09:15;3.93;;;2.53;;
1999;SDS011;1001;48.87406500;9.59633600;2023-04-15T00:11:44;4.47;;;3.90;;
1999;SDS011;1001;48.87406500;9.59633600;2023-04-15T00:14:10;5.00;;;3.50;;
1999;SDS011;1001;48.87406500;9.59633600;2023-04-15T00:16:37;5.77;;;3.70;;
1999;SDS011;1001;48.87406500;9.59633600;2023-04-15T00:19:04;4.00;;;3.10;;
1999;SDS011;1001;48.87406500;9.59633600;2023-04-15T00:21:30;4.90;;;3.67;;
1999;SDS011;1001;48.87406500;9.59633600;2023-04-15T00:23:57;7.03;;;3.27;;
1999;SDS011;1001;48.87406500;9.59633600;2023-04-15T00:26:24;6.47;;;3.67;;
1999;SDS011;1001;48.87406500;9.59633600;2023-04-15T00:28:52;4.80;;;3.27;;
1999;SDS011;1001;48.87406500;9.59633600;2023-04-15T00:31:19;4.80;;;3.50;;
1999;SDS011;1001;48.87406500;9.59633600;2023-04-15T00:33:45;3.70;;;3.30;;
1999;SDS011;1001;48.87406500;9.59633600;2023-04-15T00:36:12;3.60;;;3.30;;
1999;SDS011;1001;48.87406500;9.59633600;2023-04-15T00:38:39;3.80;;;3.30;;
1999;SDS011;1001;48.87406500;9.59633600;2023-04-15T00:41:06;5.23;;;3.30;;
1999;SDS011;1001;48.87406500;9.59633600;2023-04-15T00:43:33;6.40;;;3.20;;
1999;SDS011;1001;48.87406500;9.59633600;2023-04-15T00:46:01;5.80;;;5.20;;
1999;SDS011;1001;48.87406500;9.59633600;2023-04-15T00:48:29;4.77;;;3.90;;
1999;SDS011;1001;48.87406500;9.59633600;2023-04-15T00:50:56;3.97;;;3.40;;
1999;SDS011;1001;48.87406500;9.59633600;2023-04-15T00:53:23;4.17;;;3.53;;
1999;SDS011;1001;48.87406500;9.59633600;2023-04-15T00:55:50;6.37;;;3.43;;
1999;SDS011;1001;48.87406500;9.59633600;2023-04-15T00:58:16;6.27;;;3.60;;
1999;SDS011;1001;48.87406500;9.59633600;2023-04-15T01:00:43;4.53;;;3.73;;
1999;SDS011;1001;48.87406500;9.59633600;2023-04-15T01:03:12;4.60;;;4.07;;
1999;SDS011;1001;48.87406500;9.59633600;2023-04-15T01:05:39;6.33;;;3.90;;
1999;SDS011;1001;48.87406500;9.59633600;2023-04-15T01:08:06;4.13;;;3.17;;
1999;SDS011;1001;48.87406500;9.59633600;2023-04-15T01:10:33;4.00;;;3.40;;
1999;SDS011;1001;48.87406500;9.59633600;2023-04-15T01:13:00;6.50;;;3.50;;
1999;SDS011;1001;48.87406500;9.59633600;2023-04-15T01:15:28;4.90;;;4.23;;
1999;SDS011;1001;48.87406500;9.59633600;2023-04-15T01:17:54;5.53;;;3.67;;
1999;SDS011;1001;48.87406500;9.59633600;2023-04-15T01:20:24;6.00;;;3.80;;
1999;SDS011;1001;48.87406500;9.59633600;2023-04-15T01:22:51;6.30;;;3.77;;
1999;SDS011;1001;48.87406500;9.59633600;2023-04-15T01:25:25;4.33;;;3.63;;
1999;SDS011;1001;48.87406500;9.59633600;2023-04-15T01:27:56;4.97;;;3.80;;
1999;SDS011;1001;48.87406500;9.59633600;2023-04-15T01:30:23;4.40;;;3.50;;
1999;SDS011;1001;48.87406500;9.59633600;2023-04-15T01:32:49;5.73;;;3.50;;
1999;SDS011;1001;48.87406500;9.59633600;2023-04-15T01:35:16;6.67;;;3.93;;
1999;SDS011;1001;48.87406500;9.59633600;2023-04-15T01:37:43;6.50;;;4.10;;
1999;SDS011;1001;48.87406500;9.59633600;2023-04-15T01:40:10;5.70;;;3.17;;
1999;SDS011;1001;48.87406500;9.59633600;2023-04-15T01:42:39;4.33;;;3.70;;
1999;SDS011;1001;48.87406500;9.59633600;2023-04-15T01:45:06;6.30;;;3.80;;
1999;SDS011;1001;48.87406500;9.59633600;2023-04-15T01:47:33;4.57;;;3.80;;
1999;SDS011;1001;48.87406500;9.59633600;2023-04-15T01:50:00;4.40;;;3.20;;
1999;SDS011;1001;48.87406500;9.59633600;2023-04-15T01:52:27;4.03;;;3.60;;
1999;SDS011;1001;48.87406500;9.59633600;2023-04-15T01:54:53;4.53;;;3.00;;
1999;SDS011;1001;48.87406500;9.59633600;2023-04-15T01:57:20;6.70;;;3.77;;
1999;SDS011;1001;48.87406500;9.59633600;2023-04-15T01:59:48;4.33;;;3.00;;
1999;SDS011;1001;48.87406500;9.59633600;2023-04-15T02:02:15;3.60;;;2.90;;
1999;SDS011;1001;48.87406500;9.59633600;2023-04-15T02:04:41;6.07;;;3.30;;
1999;SDS011;1001;48.87406500;9.59633600;2023-04-15T02:07:08;3.83;;;2.90;;
1999;SDS011;1001;48.87406500;9.59633600;2023-04-15T02:09:35;5.10;;;2.97;;
1999;SDS011;1001;48.87406500;9.59633600;2023-04-15T02:12:02;4.00;;;3.60;;
1999;SDS011;1001;48.87406500;9.59633600;2023-04-15T02:14:29;4.13;;;2.97;;
1999;SDS011;1001;48.87406500;9.59633600;2023-04-15T02:16:57;4.17;;;3.40;;
1999;SDS011;1001;48.87406500;9.59633600;2023-04-15T02:19:31;3.20;;;2.53;;
1999;SDS011;1001;48.87406500;9.59633600;2023-04-15T02:21:57;6.80;;;3.00;;
1999;SDS011;1001;48.87406500;9.59633600;2023-04-15T02:24:25;5.73;;;3.63;;
1999;SDS011;1001;48.87406500;9.59633600;2023-04-15T02:26:52;3.93;;;3.63;;
1999;SDS011;1001;48.87406500;9.59633600;2023-04-15T02:29:18;5.23;;;3.50;;
1999;SDS011;1001;48.87406500;9.59633600;2023-04-15T02:31:45;7.00;;;4.83;;
1999;SDS011;1001;48.87406500;9.59633600;2023-04-15T02:34:13;6.20;;;3.93;;
1999;SDS011;1001;48.87406500;9.59633600;2023-04-15T02:36:40;4.77;;;4.33;;
1999;SDS011;1001;48.87406500;9.59633600;2023-04-15T02:39:07;5.57;;;4.40;;
1999;SDS011;1001;48.87406500;9.59633600;2023-04-15T02:41:33;6.90;;;4.10;;
1999;SDS011;1001;48.87406500;9.59633600;2023-04-15T02:44:00;5.77;;;4.40;;
1999;SDS011;1001;48.87406500;9.59633600;2023-04-15T02:46:27;4.33;;;3.70;;
1999;SDS011;1001;48.87406500;9.59633600;2023-04-15T02:48:53;4.20;;;3.80;;
1999;SDS011;1001;48.87406500;9.59633600;2023-04-15T02:51:21;4.73;;;3.67;;
1999;SDS011;1001;48.87406500;9.59633600;2023-04-15T02:53:48;6.20;;;3.93;;
1999;SDS011;1001;48.87406500;9.59633600;2023-04-15T02:56:15;5.33;;;3.63;;
1999;SDS011;1001;48.87406500;9.59633600;2023-04-15T02:58:43;3.73;;;3.30;;
1999;SDS011;1001;48.87406500;9.59633600;2023-04-15T03:01:10;4.00;;;3.53;;
1999;SDS011;1001;48.87406500;9.59633600;2023-04-15T03:03:37;3.63;;;3.10;;
1999;SDS011;1001;48.87406500;9.59633600;2023-04-15T03:06:04;5.00;;;3.23;;
1999;SDS011;1001;48.87406500;9.59633600;2023-04-15T03:08:32;5.90;;;3.67;;
1999;SDS011;1001;48.87406500;9.59633600;2023-04-15T03:10:58;3.77;;;3.40;;
1999;SDS011;1001;48.87406500;9.59633600;2023-04-15T03:13:26;4.13;;;3.80;;
1999;SDS011;1001;48.87406500;9.59633600;2023-04-15T03:15:53;8.07;;;3.67;;
1999;SDS011;1001;48.87406500;9.59633600;2023-04-15T03:18:19;4.20;;;3.53;;
1999;SDS011;1001;48.87406500;9.59633600;2023-04-15T03:20:47;3.90;;;3.40;;
1999;SDS011;1001;48.87406500;9.59633600;2023-04-15T03:23:14;4.13;;;3.50;;
1999;SDS011;1001;48.87406500;9.59633600;2023-04-15T03:25:43;4.33;;;3.77;;
1999;SDS011;1001;48.87406500;9.59633600;2023-04-15T03:28:10;9.07;;;4.10;;
1999;SDS011;1001;48.87406500;9.59633600;2023-04-15T03:30:37;5.23;;;3.87;;
1999;SDS011;1001;48.87406500;9.59633600;2023-04-15T03:33:04;9.50;;;4.37;;
1999;SDS011;1001;48.87406500;9.59633600;2023-04-15T03:35:31;6.13;;;3.50;;
1999;SDS011;1001;48.87406500;9.59633600;2023-04-15T03:37:57;4.50;;;3.33;;
1999;SDS011;1001;48.87406500;9.59633600;2023-04-15T03:40:24;3.60;;;3.30;;
1999;SDS011;1001;48.87406500;9.59633600;2023-04-15T03:42:52;4.90;;;3.20;;
1999;SDS011;1001;48.87406500;9.59633600;2023-04-15T03:45:18;6.63;;;3.50;;
1999;SDS011;1001;48.87406500;9.59633600;2023-04-15T03:47:45;4.20;;;3.10;;
1999;SDS011;1001;48.87406500;9.59633600;2023-04-15T03:50:13;4.77;;;3.70;;
1999;SDS011;1001;48.87406500;9.59633600;2023-04-15T03:52:40;6.27;;;3.30;;
1999;SDS011;1001;48.87406500;9.59633600;2023-04-15T03:55:07;4.30;;;3.07;;
1999;SDS011;1001;48.87406500;9.59633600;2023-04-15T03:57:34;3.70;;;3.20;;
1999;SDS011;1001;48.87406500;9.59633600;2023-04-15T04:00:05;6.27;;;3.20;;
1999;SDS011;1001;48.87406500;9.59633600;2023-04-15T04:02:33;6.23;;;3.70;;
1999;SDS011;1001;48.87406500;9.59633600;2023-04-15T04:04:59;5.90;;;3.80;;
1999;SDS011;1001;48.87406500;9.59633600;2023-04-15T04:07:26;7.60;;;3.03;;
1999;SDS011;1001;48.87406500;9.59633600;2023-04-15T04:09:53;6.00;;;2.90;;
1999;SDS011;1001;48.87406500;9.59633600;2023-04-15T04:12:19;9.80;;;3.60;;
1999;SDS011;1001;48.87406500;9.59633600;2023-04-15T04:14:46;5.53;;;3.13;;
1999;SDS011;1001;48.87406500;9.59633600;2023-04-15T04:17:14;4.87;;;3.50;;
1999;SDS011;1001;48.87406500;9.59633600;2023-04-15T04:19:40;3.10;;;2.70;;
1999;SDS011;1001;48.87406500;9.59633600;2023-04-15T04:22:07;4.60;;;2.53;;
1999;SDS011;1001;48.87406500;9.59633600;2023-04-15T04:24:33;3.30;;;3.00;;
1999;SDS011;1001;48.87406500;9.59633600;2023-04-15T04:27:00;7.13;;;3.20;;
1999;SDS011;1001;48.87406500;9.59633600;2023-04-15T04:29:27;4.50;;;2.30;;
1999;SDS011;1001;48.87406500;9.59633600;2023-04-15T04:31:53;3.70;;;3.00;;
1999;SDS011;1001;48.87406500;9.59633600;2023-04-15T04:34:21;4.17;;;3.00;;
1999;SDS011;1001;48.87406500;9.59633600;2023-04-15T04:36:48;6.13;;;3.77;;
1999;SDS011;1001;48.87406500;9.59633600;2023-04-15T04:39:15;5.57;;;3.87;;
1999;SDS011;1001;48.87406500;9.59633600;2023-04-15T04:41:41;5.93;;;3.80;;
1999;SDS011;1001;48.87406500;9.59633600;2023-04-15T04:44:08;4.67;;;3.70;;
1999;SDS011;1001;48.87406500;9.59633600;2023-04-15T04:46:34;7.80;;;4.30;;
1999;SDS011;1001;48.87406500;9.59633600;2023-04-15T04:49:01;5.60;;;3.47;;
1999;SDS011;1001;48.87406500;9.59633600;2023-04-15T04:51:29;3.93;;;3.30;;
1999;SDS011;1001;48.87406500;9.59633600;2023-04-15T04:53:56;6.37;;;4.40;;
1999;SDS011;1001;48.87406500;9.59633600;2023-04-15T04:56:23;7.83;;;4.23;;
1999;SDS011;1001;48.87406500;9.59633600;2023-04-15T04:58:49;4.10;;;3.60;;
1999;SDS011;1001;48.87406500;9.59633600;2023-04-15T05:01:16;5.13;;;3.40;;
1999;SDS011;1001;48.87406500;9.59633600;2023-04-15T05:03:43;5.63;;;3.10;;
1999;SDS011;1001;48.87406500;9.59633600;2023-04-15T05:06:09;5.40;;;3.93;;
1999;SDS011;1001;48.87406500;9.59633600;2023-04-15T05:08:37;4.40;;;3.60;;
1999;SDS011;1001;48.87406500;9.59633600;2023-04-15T05:11:05;5.90;;;3.40;;
1999;SDS011;1001;48.87406500;9.59633600;2023-04-15T05:13:32;5.50;;;3.70;;
1999;SDS011;1001;48.87406500;9.59633600;2023-04-15T05:15:58;4.80;;;3.80;;
1999;SDS011;1001;48.87406500;9.59633600;2023-04-15T05:18:25;5.33;;;3.23;;
1999;SDS011;1001;48.87406500;9.59633600;2023-04-15T05:20:51;6.13;;;3.73;;
1999;SDS011;1001;48.87406500;9.59633600;2023-04-15T05:23:18;9.13;;;3.77;;
1999;SDS011;1001;48.87406500;9.59633600;2023-04-15T05:25:46;6.63;;;3.07;;
1999;SDS011;1001;48.87406500;9.59633600;2023-04-15T05:28:13;8.83;;;3.50;;
1999;SDS011;1001;48.87406500;9.59633600;2023-04-15T05:30:39;8.10;;;3.50;;
1999;SDS011;1001;48.87406500;9.59633600;2023-04-15T05:33:06;10.10;;;3.50;;
1999;SDS011;1001;48.87406500;9.59633600;2023-04-15T05:35:33;3.60;;;3.00;;
1999;SDS011;1001;48.87406500;9.59633600;2023-04-15T05:37:59;4.10;;;3.00;;
1999;SDS011;1001;48.87406500;9.59633600;2023-04-15T05:40:26;8.67;;;3.40;;
1999;SDS011;1001;48.87406500;9.59633600;2023-04-15T05:42:54;5.43;;;3.20;;
1999;SDS011;1001;48.87406500;9.59633600;2023-04-15T05:45:20;4.23;;;3.80;;
1999;SDS011;1001;48.87406500;9.59633600;2023-04-15T05:47:47;8.53;;;2.93;;
1999;SDS011;1001;48.87406500;9.59633600;2023-04-15T05:50:15;6.80;;;3.60;;
1999;SDS011;1001;48.87406500;9.59633600;2023-04-15T05:52:41;6.40;;;3.23;;
1999;SDS011;1001;48.87406500;9.59633600;2023-04-15T05:55:08;7.90;;;3.37;;
1999;SDS011;1001;48.87406500;9.59633600;2023-04-15T05:57:35;3.30;;;2.27;;
1999;SDS011;1001;48.87406500;9.59633600;2023-04-15T06:00:04;7.70;;;3.13;;
1999;SDS011;1001;48.87406500;9.59633600;2023-04-15T06:02:31;7.40;;;3.50;;
1999;SDS011;1001;48.87406500;9.59633600;2023-04-15T06:04:58;6.10;;;2.77;;
1999;SDS011;1001;48.87406500;9.59633600;2023-04-15T06:07:25;8.40;;;2.83;;
1999;SDS011;1001;48.87406500;9.59633600;2023-04-15T06:09:51;6.33;;;2.80;;
1999;SDS011;1001;48.87406500;9.59633600;2023-04-15T06:12:18;4.93;;;3.07;;
1999;SDS011;1001;48.87406500;9.59633600;2023-04-15T06:14:44;7.07;;;3.10;;
1999;SDS011;1001;48.87406500;9.59633600;2023-04-15T06:17:12;4.87;;;2.60;;
1999;SDS011;1001;48.87406500;9.59633600;2023-04-15T06:19:42;5.40;;;2.67;;
1999;SDS011;1001;48.87406500;9.59633600;2023-04-15T06:22:08;4.40;;;3.60;;
1999;SDS011;1001;48.87406500;9.59633600;2023-04-15T06:24:35;3.53;;;2.60;;
1999;SDS011;1001;48.87406500;9.59633600;2023-04-15T06:27:02;4.30;;;2.50;;
1999;SDS011;1001;48.87406500;9.59633600;2023-04-15T06:29:28;4.70;;;2.50;;
1999;SDS011;1001;48.87406500;9.59633600;2023-04-15T06:31:55;4.00;;;2.60;;
1999;SDS011;1001;48.87406500;9.59633600;2023-04-15T06:34:23;4.67;;;3.30;;
1999;SDS011;1001;48.87406500;9.59633600;2023-04-15T06:36:50;4.73;;;2.37;;
1999;SDS011;1001;48.87406500;9.59633600;2023-04-15T06:39:16;6.90;;;3.60;;
1999;SDS011;1001;48.87406500;9.59633600;2023-04-15T06:41:43;6.47;;;2.17;;
1999;SDS011;1001;48.87406500;9.59633600;2023-04-15T06:44:10;4.07;;;2.50;;
1999;SDS011;1001;48.87406500;9.59633600;2023-04-15T06:46:36;6.43;;;2.40;;
1999;SDS011;1001;48.87406500;9.59633600;2023-04-15T06:49:03;4.93;;;2.70;;
1999;SDS011;1001;48.87406500;9.59633600;2023-04-15T06:51:31;4.30;;;3.07;;
1999;SDS011;1001;48.87406500;9.59633600;2023-04-15T06:53:58;6.30;;;2.90;;
1999;SDS011;1001;48.87406500;9.59633600;2023-04-15T06:56:24;3.87;;;2.80;;
1999;SDS011;1001;48.87406500;9.59633600;2023-04-15T06:58:51;4.90;;;2.83;;
1999;SDS011;1001;48.87406500;9.59633600;2023-04-15T07:01:17;4.40;;;2.77;;
1999;SDS011;1001;48.87406500;9.59633600;2023-04-15T07:03:44;5.13;;;2.37;;
1999;SDS011;1001;48.87406500;9.59633600;2023-04-15T07:06:11;4.63;;;2.23;;
1999;SDS011;1001;48.87406500;9.59633600;2023-04-15T07:08:39;5.50;;;2.30;;
1999;SDS011;1001;48.87406500;9.59633600;2023-04-15T07:11:06;5.60;;;2.17;;
1999;SDS011;1001;48.87406500;9.59633600;2023-04-15T07:13:32;4.47;;;2.20;;
1999;SDS011;1001;48.87406500;9.59633600;2023-04-15T07:15:59;4.80;;;2.27;;
1999;SDS011;1001;48.87406500;9.59633600;2023-04-15T07:18:26;3.10;;;2.40;;
1999;SDS011;1001;48.87406500;9.59633600;2023-04-15T07:20:52;7.77;;;2.30;;
1999;SDS011;1001;48.87406500;9.59633600;2023-04-15T07:23:20;3.47;;;2.00;;
1999;SDS011;1001;48.87406500;9.59633600;2023-04-15T07:25:48;4.30;;;2.13;;
1999;SDS011;1001;48.87406500;9.59633600;2023-04-15T07:28:14;4.60;;;2.67;;
1999;SDS011;1001;48.87406500;9.59633600;2023-04-15T07:30:41;3.37;;;2.30;;
1999;SDS011;1001;48.87406500;9.59633600;2023-04-15T07:33:07;7.97;;;2.27;;
1999;SDS011;1001;48.87406500;9.59633600;2023-04-15T07:35:34;5.00;;;2.60;;
1999;SDS011;1001;48.87406500;9.59633600;2023-04-15T07:38:01;9.40;;;2.90;;
1999;SDS011;1001;48.87406500;9.59633600;2023-04-15T07:40:27;5.90;;;2.80;;
1999;SDS011;1001;48.87406500;9.59633600;2023-04-15T07:42:56;6.53;;;3.20;;
1999;SDS011;1001;48.87406500;9.59633600;2023-04-15T07:45:22;5.10;;;2.60;;
1999;SDS011;1001;48.87406500;9.59633600;2023-04-15T07:47:49;3.07;;;2.57;;
1999;SDS011;1001;48.87406500;9.59633600;2023-04-15T07:50:16;4.60;;;2.20;;
1999;SDS011;1001;48.87406500;9.59633600;2023-04-15T07:52:43;4.40;;;2.43;;
1999;SDS011;1001;48.87406500;9.59633600;2023-04-15T07:55:10;2.90;;;1.70;;
1999;SDS011;1001;48.87406500;9.59633600;2023-04-15T07:57:37;3.90;;;1.87;;
1999;SDS011;1001;48.87406500;9.59633600;2023-04-15T08:00:06;4.33;;;3.03;;
1999;SDS011;1001;48.87406500;9.59633600;2023-04-15T08:02:33;5.33;;;2.13;;
1999;SDS011;1001;48.87406500;9.59633600;2023-04-15T08:05:00;6.10;;;2.73;;
1999;SDS011;1001;48.87406500;9.59633600;2023-04-15T08:07:28;3.17;;;2.17;;
1999;SDS011;1001;48.87406500;9.59633600;2023-04-15T08:09:55;3.77;;;2.20;;
1999;SDS011;1001;48.87406500;9.59633600;2023-04-15T08:12:22;7.80;;;2.37;;
1999;SDS011;1001;48.87406500;9.59633600;2023-04-15T08:14:49;4.70;;;1.97;;
1999;SDS011;1001;48.87406500;9.59633600;2023-04-15T08:17:17;2.30;;;1.97;;
1999;SDS011;1001;48.87406500;9.59633600;2023-04-15T08:19:44;4.87;;;2.10;;
1999;SDS011;1001;48.87406500;9.59633600;2023-04-15T08:22:12;2.70;;;2.20;;
1999;SDS011;1001;48.87406500;9.59633600;2023-04-15T08:24:39;4.33;;;2.60;;
1999;SDS011;1001;48.87406500;9.59633600;2023-04-15T08:27:05;2.23;;;2.03;;
1999;SDS011;1001;48.87406500;9.59633600;2023-04-15T08:29:33;6.17;;;2.13;;
1999;SDS011;1001;48.87406500;9.59633600;2023-04-15T08:32:00;3.97;;;2.33;;
1999;SDS011;1001;48.87406500;9.59633600;2023-04-15T08:34:28;3.23;;;2.33;;
1999;SDS011;1001;48.87406500;9.59633600;2023-04-15T08:36:55;3.07;;;2.67;;
1999;SDS011;1001;48.87406500;9.59633600;2023-04-15T08:39:21;5.33;;;1.90;;
1999;SDS011;1001;48.87406500;9.59633600;2023-04-15T08:41:50;3.13;;;2.50;;
1999;SDS011;1001;48.87406500;9.59633600;2023-04-15T08:44:21;3.80;;;1.90;;
1999;SDS011;1001;48.87406500;9.59633600;2023-04-15T08:46:49;3.50;;;2.70;;
1999;SDS011;1001;48.87406500;9.59633600;2023-04-15T08:49:16;7.23;;;3.50;;
1999;SDS011;1001;48.87406500;9.59633600;2023-04-15T08:51:46;4.53;;;2.67;;
1999;SDS011;1001;48.87406500;9.59633600;2023-04-15T08:54:13;4.07;;;2.53;;
1999;SDS011;1001;48.87406500;9.59633600;2023-04-15T08:56:40;4.40;;;2.47;;
1999;SDS011;1001;48.87406500;9.59633600;2023-04-15T08:59:07;3.10;;;2.37;;
1999;SDS011;1001;48.87406500;9.59633600;2023-04-15T09:01:35;4.00;;;2.30;;
1999;SDS011;1001;48.87406500;9.59633600;2023-04-15T09:04:03;2.70;;;2.03;;
1999;SDS011;1001;48.87406500;9.59633600;2023-04-15T09:06:32;3.33;;;2.57;;
1999;SDS011;1001;48.87406500;9.59633600;2023-04-15T09:09:00;9.00;;;2.33;;
1999;SDS011;1001;48.87406500;9.59633600;2023-04-15T09:11:28;2.67;;;2.10;;
1999;SDS011;1001;48.87406500;9.59633600;2023-04-15T09:13:55;3.53;;;2.13;;
1999;SDS011;1001;48.87406500;9.59633600;2023-04-15T09:16:22;3.53;;;2.10;;
1999;SDS011;1001;48.87406500;9.59633600;2023-04-15T09:18:49;6.80;;;2.20;;
1999;SDS011;1001;48.87406500;9.59633600;2023-04-15T09:21:16;2.57;;;2.23;;
1999;SDS011;1001;48.87406500;9.59633600;2023-04-15T09:23:53;3.97;;;2.17;;
1999;SDS011;1001;48.87406500;9.59633600;2023-04-15T09:26:30;7.80;;;2.40;;
1999;SDS011;1001;48.87406500;9.59633600;2023-04-15T09:29:01;2.50;;;2.17;;
1999;SDS011;1001;48.87406500;9.59633600;2023-04-15T09:31:29;2.90;;;2.10;;
1999;SDS011;1001;48.87406500;9.59633600;2023-04-15T09:33:57;4.27;;;2.23;;
1999;SDS011;1001;48.87406500;9.59633600;2023-04-15T09:36:23;4.17;;;2.70;;
1999;SDS011;1001;48.87406500;9.59633600;2023-04-15T09:38:54;2.47;;;2.07;;
1999;SDS011;1001;48.87406500;9.59633600;2023-04-15T09:41:21;4.23;;;2.60;;
1999;SDS011;1001;48.87406500;9.59633600;2023-04-15T09:43:49;5.30;;;2.50;;
1999;SDS011;1001;48.87406500;9.59633600;2023-04-15T09:46:16;6.00;;;1.93;;
1999;SDS011;1001;48.87406500;9.59633600;2023-04-15T09:48:42;3.83;;;2.30;;
1999;SDS011;1001;48.87406500;9.59633600;2023-04-15T09:51:09;4.90;;;3.13;;
1999;SDS011;1001;48.87406500;9.59633600;2023-04-15T09:53:36;3.83;;;2.40;;
1999;SDS011;1001;48.87406500;9.59633600;2023-04-15T09:56:03;5.70;;;3.20;;
1999;SDS011;1001;48.87406500;9.59633600;2023-04-15T09:58:32;6.23;;;2.37;;
1999;SDS011;1001;48.87406500;9.59633600;2023-04-15T10:01:04;3.77;;;3.07;;
1999;SDS011;1001;48.87406500;9.59633600;2023-04-15T10:03:32;3.93;;;2.67;;
1999;SDS011;1001;48.87406500;9.59633600;2023-04-15T10:06:01;3.90;;;2.73;;
1999;SDS011;1001;48.87406500;9.59633600;2023-04-15T10:08:29;5.60;;;3.60;;
1999;SDS011;1001;48.87406500;9.59633600;2023-04-15T10:10:57;3.70;;;2.90;;
1999;SDS011;1001;48.87406500;9.59633600;2023-04-15T10:13:25;6.83;;;4.13;;
1999;SDS011;1001;48.87406500;9.59633600;2023-04-15T10:15:57;4.47;;;3.10;;
1999;SDS011;1001;48.87406500;9.59633600;2023-04-15T10:18:33;4.07;;;3.03;;
1999;SDS011;1001;48.87406500;9.59633600;2023-04-15T10:21:03;3.63;;;3.30;;
1999;SDS011;1001;48.87406500;9.59633600;2023-04-15T10:23:31;3.53;;;3.23;;
1999;SDS011;1001;48.87406500;9.59633600;2023-04-15T10:25:58;4.33;;;2.80;;
1999;SDS011;1001;48.87406500;9.59633600;2023-04-15T10:28:25;3.13;;;2.53;;
1999;SDS011;1001;48.87406500;9.59633600;2023-04-15T10:30:52;4.70;;;2.73;;
1999;SDS011;1001;48.87406500;9.59633600;2023-04-15T10:33:19;3.80;;;2.93;;
1999;SDS011;1001;48.87406500;9.59633600;2023-04-15T10:35:49;4.73;;;3.07;;
1999;SDS011;1001;48.87406500;9.59633600;2023-04-15T10:41:14;5.13;;;3.67;;
1999;SDS011;1001;48.87406500;9.59633600;2023-04-15T10:43:47;4.87;;;4.20;;
1999;SDS011;1001;48.87406500;9.59633600;2023-04-15T10:46:18;5.50;;;3.27;;
1999;SDS011;1001;48.87406500;9.59633600;2023-04-15T10:48:48;5.53;;;2.90;;
1999;SDS011;1001;48.87406500;9.59633600;2023-04-15T10:51:17;6.77;;;3.80;;
1999;SDS011;1001;48.87406500;9.59633600;2023-04-15T10:53:54;6.90;;;3.37;;
1999;SDS011;1001;48.87406500;9.59633600;2023-04-15T10:56:22;3.90;;;3.57;;
1999;SDS011;1001;48.87406500;9.59633600;2023-04-15T10:58:49;9.07;;;4.43;;
1999;SDS011;1001;48.87406500;9.59633600;2023-04-15T11:01:16;4.10;;;3.17;;
1999;SDS011;1001;48.87406500;9.59633600;2023-04-15T11:03:45;4.70;;;2.80;;
1999;SDS011;1001;48.87406500;9.59633600;2023-04-15T11:06:11;3.10;;;2.70;;
1999;SDS011;1001;48.87406500;9.59633600;2023-04-15T11:08:53;4.80;;;3.10;;
1999;SDS011;1001;48.87406500;9.59633600;2023-04-15T11:11:23;7.37;;;3.40;;
1999;SDS011;1001;48.87406500;9.59633600;2023-04-15T11:14:33;3.67;;;3.30;;
1999;SDS011;1001;48.87406500;9.59633600;2023-04-15T11:17:04;5.27;;;3.37;;
1999;SDS011;1001;48.87406500;9.59633600;2023-04-15T11:19:34;4.90;;;3.23;;
1999;SDS011;1001;48.87406500;9.59633600;2023-04-15T11:22:05;6.33;;;3.37;;
1999;SDS011;1001;48.87406500;9.59633600;2023-04-15T11:24:34;5.67;;;3.37;;
1999;SDS011;1001;48.87406500;9.59633600;2023-04-15T11:27:01;3.83;;;2.90;;
1999;SDS011;1001;48.87406500;9.59633600;2023-04-15T11:29:28;6.53;;;3.57;;
1999;SDS011;1001;48.87406500;9.59633600;2023-04-15T11:32:03;5.53;;;3.67;;
1999;SDS011;1001;48.87406500;9.59633600;2023-04-15T11:34:31;7.20;;;3.43;;
1999;SDS011;1001;48.87406500;9.59633600;2023-04-15T11:36:57;8.97;;;3.73;;
1999;SDS011;1001;48.87406500;9.59633600;2023-04-15T11:39:24;4.87;;;2.80;;
1999;SDS011;1001;48.87406500;9.59633600;2023-04-15T11:41:52;7.67;;;3.40;;
1999;SDS011;1001;48.87406500;9.59633600;2023-04-15T11:44:18;7.03;;;4.30;;
1999;SDS011;1001;48.87406500;9.59633600;2023-04-15T11:46:45;3.30;;;3.00;;
1999;SDS011;1001;48.87406500;9.59633600;2023-04-15T11:49:24;3.97;;;3.00;;
1999;SDS011;1001;48.87406500;9.59633600;2023-04-15T11:51:51;5.20;;;4.30;;
1999;SDS011;1001;48.87406500;9.59633600;2023-04-15T11:54:18;6.30;;;3.70;;
1999;SDS011;1001;48.87406500;9.59633600;2023-04-15T11:56:48;4.03;;;2.90;;
1999;SDS011;1001;48.87406500;9.59633600;2023-04-15T11:59:17;6.50;;;3.80;;
1999;SDS011;1001;48.87406500;9.59633600;2023-04-15T12:01:43;4.57;;;3.50;;
1999;SDS011;1001;48.87406500;9.59633600;2023-04-15T12:04:11;3.43;;;3.00;;
1999;SDS011;1001;48.87406500;9.59633600;2023-04-15T12:06:39;4.90;;;3.37;;
1999;SDS011;1001;48.87406500;9.59633600;2023-04-15T12:09:07;3.90;;;2.70;;
1999;SDS011;1001;48.87406500;9.59633600;2023-04-15T12:11:35;4.97;;;2.80;;
1999;SDS011;1001;48.87406500;9.59633600;2023-04-15T12:14:07;4.10;;;3.10;;
1999;SDS011;1001;48.87406500;9.59633600;2023-04-15T12:16:38;6.27;;;2.70;;
1999;SDS011;1001;48.87406500;9.59633600;2023-04-15T12:19:07;2.40;;;2.20;;
1999;SDS011;1001;48.87406500;9.59633600;2023-04-15T12:21:37;2.87;;;1.90;;
1999;SDS011;1001;48.87406500;9.59633600;2023-04-15T12:24:06;4.63;;;2.70;;
1999;SDS011;1001;48.87406500;9.59633600;2023-04-15T12:26:35;3.27;;;2.20;;
1999;SDS011;1001;48.87406500;9.59633600;2023-04-15T12:29:03;3.77;;;1.70;;
1999;SDS011;1001;48.87406500;9.59633600;2023-04-15T12:31:32;4.07;;;1.93;;
1999;SDS011;1001;48.87406500;9.59633600;2023-04-15T12:34:01;2.70;;;2.40;;
1999;SDS011;1001;48.87406500;9.59633600;2023-04-15T12:36:29;3.90;;;2.20;;
1999;SDS011;1001;48.87406500;9.59633600;2023-04-15T12:39:00;3.47;;;2.40;;
1999;SDS011;1001;48.87406500;9.59633600;2023-04-15T12:41:27;6.53;;;2.13;;
1999;SDS011;1001;48.87406500;9.59633600;2023-04-15T12:43:53;4.03;;;2.20;;
1999;SDS011;1001;48.87406500;9.59633600;2023-04-15T12:46:20;2.83;;;2.53;;
1999;SDS011;1001;48.87406500;9.59633600;2023-04-15T12:48:47;3.17;;;2.87;;
1999;SDS011;1001;48.87406500;9.59633600;2023-04-15T12:51:15;3.53;;;2.23;;
1999;SDS011;1001;48.87406500;9.59633600;2023-04-15T12:53:42;4.60;;;2.60;;
1999;SDS011;1001;48.87406500;9.59633600;2023-04-15T12:56:08;2.73;;;2.20;;
1999;SDS011;1001;48.87406500;9.59633600;2023-04-15T12:58:35;3.50;;;2.70;;
1999;SDS011;1001;48.87406500;9.59633600;2023-04-15T13:01:01;2.83;;;2.40;;
1999;SDS011;1001;48.87406500;9.59633600;2023-04-15T13:03:28;3.20;;;2.70;;
1999;SDS011;1001;48.87406500;9.59633600;2023-04-15T13:05:55;3.30;;;2.33;;
1999;SDS011;1001;48.87406500;9.59633600;2023-04-15T13:08:23;2.80;;;2.13;;
1999;SDS011;1001;48.87406500;9.59633600;2023-04-15T13:10:49;2.03;;;1.80;;
1999;SDS011;1001;48.87406500;9.59633600;2023-04-15T13:13:16;3.83;;;1.40;;
1999;SDS011;1001;48.87406500;9.59633600;2023-04-15T13:15:42;4.53;;;1.87;;
1999;SDS011;1001;48.87406500;9.59633600;2023-04-15T13:18:10;2.07;;;1.60;;